Time;durP1;ratioP1;P1;durP2;ratioP2;P2;SDS_P1;SDS_P2;PMS_P1;PMS_P2;Temp;Humidity;BMP_temperature;BMP_pressure;BME280_temperature;BME280_humidity;BME280_pressure;Samples;Min_cycle;Max_cycle;Signal;HPM_P1;HPM_P2
2023/12/25 00:02:16;;;;;;;63.28;38.45;;;230.40;2252.80;;;;;;5027747;28;20061;-73
2023/12/25 00:04:42;;;;;;;66.90;39.35;;;230.50;2252.80;;;;;;5031631;28;20056;-70
2023/12/25 00:07:11;;;;;;;70.22;39.65;;;230.50;2252.80;;;;;;5031671;28;20034;-66
2023/12/25 00:09:37;;;;;;;62.75;38.28;;;230.50;2252.80;;;;;;5032071;28;20029;-70
2023/12/25 00:12:03;;;;;;;61.63;37.08;;;230.50;2252.80;;;;;;5032078;28;20037;-76
2023/12/25 00:14:29;;;;;;;66.03;38.55;;;230.40;2252.80;;;;;;5032848;28;20035;-64
2023/12/25 00:16:58;;;;;;;59.72;37.47;;;230.40;2252.80;;;;;;5031004;28;20520;-67
2023/12/25 00:19:25;;;;;;;65.10;38.63;;;230.40;2252.80;;;;;;5022617;28;20029;-65
2023/12/25 00:21:50;;;;;;;59.97;36.10;;;230.40;2252.80;;;;;;5032420;28;20041;-79
2023/12/25 00:24:16;;;;;;;54.47;34.47;;;205.70;2252.80;;;;;;5033183;28;20033;-65
2023/12/25 00:26:42;;;;;;;65.05;38.65;;;205.70;2252.80;;;;;;5026479;28;20092;-70
2023/12/25 00:29:11;;;;;;;63.55;37.78;;;205.70;2252.80;;;;;;5034943;28;20012;-65
2023/12/25 00:31:37;;;;;;;73.72;42.88;;;205.60;2252.80;;;;;;5031639;28;20469;-65
2023/12/25 00:34:02;;;;;;;80.55;44.92;;;205.60;2252.80;;;;;;5028963;28;20041;-64
2023/12/25 00:36:29;;;;;;;79.57;44.22;;;205.50;2252.80;;;;;;5029568;28;20388;-73
2023/12/25 00:38:54;;;;;;;71.88;39.55;;;205.40;2252.80;;;;;;5031811;28;20052;-66
2023/12/25 00:41:22;;;;;;;66.47;39.17;;;205.30;2252.80;;;;;;5016907;28;20037;-72
2023/12/25 00:43:48;;;;;;;77.93;43.78;;;205.20;2252.80;;;;;;5032984;28;20030;-70
2023/12/25 00:46:14;;;;;;;72.63;44.50;;;205.20;2252.80;;;;;;5035215;28;20403;-66
2023/12/25 00:48:40;;;;;;;67.78;41.40;;;205.20;2252.80;;;;;;5051627;28;20025;-72
2023/12/25 00:51:05;;;;;;;69.00;41.15;;;205.20;2252.80;;;;;;5042072;28;20400;-66
2023/12/25 00:53:32;;;;;;;67.78;39.55;;;205.10;2252.80;;;;;;5028649;28;20029;-67
2023/12/25 00:56:04;;;;;;;69.03;40.30;;;205.10;2252.80;;;;;;5031997;28;20087;-65
2023/12/25 00:58:29;;;;;;;73.68;42.20;;;205.00;2252.80;;;;;;5031861;28;20075;-70
2023/12/25 01:00:55;;;;;;;73.38;42.35;;;205.00;2252.80;;;;;;5029092;28;20113;-65
2023/12/25 01:03:21;;;;;;;65.28;38.38;;;204.90;2252.80;;;;;;5030677;28;20029;-65
2023/12/25 01:05:46;;;;;;;66.65;39.22;;;204.90;2252.80;;;;;;5029789;28;20037;-65
2023/12/25 01:08:12;;;;;;;66.47;40.45;;;204.90;2252.80;;;;;;5030224;28;20037;-67
2023/12/25 01:10:38;;;;;;;72.30;39.97;;;204.90;2252.80;;;;;;5026863;28;20108;-71
2023/12/25 01:13:06;;;;;;;70.32;40.10;;;204.90;2252.80;;;;;;5037009;28;20044;-69
2023/12/25 01:15:32;;;;;;;70.63;38.63;;;204.90;2252.80;;;;;;5024042;28;20105;-69
2023/12/25 01:18:00;;;;;;;65.60;37.83;;;204.90;2252.80;;;;;;5032139;28;20116;-68
2023/12/25 01:20:26;;;;;;;72.10;44.13;;;204.90;2252.80;;;;;;5011926;28;20369;-65
2023/12/25 01:22:52;;;;;;;96.10;61.42;;;205.00;2252.80;;;;;;5031782;28;20025;-69
2023/12/25 01:25:18;;;;;;;77.45;46.47;;;205.00;2252.80;;;;;;5013560;28;20053;-66
2023/12/25 01:27:43;;;;;;;55.88;35.25;;;205.10;2252.80;;;;;;5028140;28;20087;-66
2023/12/25 01:30:10;;;;;;;68.45;37.08;;;205.10;2252.80;;;;;;5029800;28;20029;-75
2023/12/25 01:32:39;;;;;;;53.90;32.17;;;205.30;2252.80;;;;;;5031784;28;20028;-65
2023/12/25 01:35:05;;;;;;;50.92;30.15;;;205.30;2252.80;;;;;;5030802;28;20034;-65
2023/12/25 01:37:31;;;;;;;51.70;31.05;;;205.40;2252.80;;;;;;5030435;28;20022;-66
2023/12/25 01:39:57;;;;;;;51.05;30.98;;;205.60;2252.80;;;;;;5030977;28;20091;-72
2023/12/25 01:42:23;;;;;;;45.88;28.40;;;205.60;2252.80;;;;;;5031995;28;20053;-70
2023/12/25 01:44:51;;;;;;;48.55;27.70;;;230.40;2252.80;;;;;;5030793;28;20043;-65
2023/12/25 01:47:20;;;;;;;49.72;29.02;;;230.70;2252.80;;;;;;5031127;28;20032;-70
2023/12/25 01:49:46;;;;;;;49.83;27.85;;;230.50;2252.80;;;;;;5034908;28;20029;-82
2023/12/25 01:52:12;;;;;;;51.92;30.75;;;230.60;2252.80;;;;;;5034065;28;20029;-77
2023/12/25 01:54:39;;;;;;;57.65;32.13;;;230.60;2252.80;;;;;;5033789;28;20618;-67
2023/12/25 01:57:05;;;;;;;43.10;26.25;;;230.70;2252.80;;;;;;5034658;28;20570;-80
2023/12/25 01:59:34;;;;;;;48.08;25.45;;;230.80;2252.80;;;;;;5035521;28;20029;-77
2023/12/25 02:02:00;;;;;;;46.38;26.27;;;230.80;2252.80;;;;;;5029927;28;20030;-71
2023/12/25 02:04:27;;;;;;;39.85;24.38;;;230.80;2252.80;;;;;;5033229;28;20033;-71
2023/12/25 02:06:57;;;;;;;46.90;25.48;;;230.80;2252.80;;;;;;5034661;28;20044;-66
2023/12/25 02:09:23;;;;;;;41.17;24.48;;;230.90;2252.80;;;;;;5017206;28;20036;-65
2023/12/25 02:11:49;;;;;;;40.28;23.52;;;230.90;2252.80;;;;;;5034737;28;20438;-65
2023/12/25 02:14:15;;;;;;;40.08;23.52;;;230.90;2252.80;;;;;;5034081;28;20444;-77
2023/12/25 02:16:41;;;;;;;41.88;24.88;;;230.90;2252.80;;;;;;5035387;28;20029;-66
2023/12/25 02:19:32;;;;;;;42.15;24.92;;;230.90;2252.80;;;;;;5034507;28;20030;-70
2023/12/25 02:21:59;;;;;;;46.45;27.02;;;230.90;2252.80;;;;;;5034997;28;20025;-76
2023/12/25 02:24:29;;;;;;;40.13;23.67;;;230.90;2252.80;;;;;;5034298;28;20032;-72
2023/12/25 02:26:55;;;;;;;44.25;22.35;;;231.00;2252.80;;;;;;5034661;28;20061;-66
2023/12/25 02:29:21;;;;;;;30.33;17.48;;;231.00;2252.80;;;;;;5034501;28;20060;-66
2023/12/25 02:31:48;;;;;;;28.77;15.73;;;231.10;2252.80;;;;;;5035134;28;20025;-69
2023/12/25 02:34:14;;;;;;;27.25;15.30;;;231.30;2252.80;;;;;;5015613;28;20029;-70
2023/12/25 02:36:40;;;;;;;30.23;15.40;;;256.20;2252.80;;;;;;5012809;28;20030;-69
2023/12/25 02:39:06;;;;;;;28.33;15.40;;;256.20;2252.80;;;;;;5030860;28;20036;-66
2023/12/25 02:41:32;;;;;;;30.33;15.82;;;256.20;2252.80;;;;;;5034151;28;20013;-65
2023/12/25 02:43:57;;;;;;;28.02;16.75;;;256.30;2252.80;;;;;;5033278;28;20386;-65
2023/12/25 02:46:23;;;;;;;25.23;14.65;;;256.30;2252.80;;;;;;5034641;28;20029;-74
2023/12/25 02:48:49;;;;;;;25.83;15.40;;;256.30;2252.80;;;;;;5015608;28;20049;-65
2023/12/25 02:51:15;;;;;;;25.15;14.80;;;256.40;2252.80;;;;;;5033899;28;20525;-65
2023/12/25 02:53:41;;;;;;;28.60;15.30;;;256.40;2252.80;;;;;;5030244;28;20514;-74
2023/12/25 02:56:07;;;;;;;24.13;14.23;;;256.40;2252.80;;;;;;5031420;28;20025;-66
2023/12/25 02:58:34;;;;;;;28.35;14.55;;;256.50;2252.80;;;;;;5033659;28;20057;-65
2023/12/25 03:00:59;;;;;;;27.10;14.27;;;256.50;2252.80;;;;;;5032867;28;20032;-71
2023/12/25 03:03:25;;;;;;;25.15;14.38;;;256.50;2252.80;;;;;;5034194;28;20033;-74
2023/12/25 03:05:51;;;;;;;28.42;14.40;;;256.50;2252.80;;;;;;5033621;28;20069;-65
2023/12/25 03:08:17;;;;;;;25.20;14.98;;;256.40;2252.80;;;;;;5033814;28;20079;-78
2023/12/25 03:10:42;;;;;;;23.08;13.88;;;256.50;2252.80;;;;;;5033745;28;20397;-77
2023/12/25 03:13:08;;;;;;;25.02;15.27;;;256.60;2252.80;;;;;;5026553;28;20057;-66
2023/12/25 03:15:35;;;;;;;24.33;14.88;;;256.60;2252.80;;;;;;5030188;28;20465;-65
2023/12/25 03:18:01;;;;;;;29.05;15.88;;;256.60;2252.80;;;;;;5032811;28;20038;-74
2023/12/25 03:20:27;;;;;;;29.63;17.08;;;256.50;2252.80;;;;;;5032016;28;20033;-78
2023/12/25 03:22:53;;;;;;;27.95;15.85;;;256.50;2252.80;;;;;;5033870;28;20032;-73
2023/12/25 03:25:19;;;;;;;33.10;18.92;;;256.50;2252.80;;;;;;5015210;28;20041;-65
2023/12/25 03:27:44;;;;;;;66.50;32.20;;;256.50;2252.80;;;;;;5034424;28;20025;-65
2023/12/25 03:30:13;;;;;;;40.40;20.90;;;256.40;2252.80;;;;;;5034516;28;20057;-68
2023/12/25 03:32:39;;;;;;;42.35;21.63;;;256.40;2252.80;;;;;;5034078;28;20168;-68
2023/12/25 03:35:05;;;;;;;39.20;19.05;;;256.40;2252.80;;;;;;5034748;28;20056;-66
2023/12/25 03:37:31;;;;;;;49.70;22.77;;;256.40;2252.80;;;;;;5031934;28;20025;-65
2023/12/25 03:39:59;;;;;;;40.45;19.98;;;256.40;2252.80;;;;;;5029987;28;20087;-77
2023/12/25 03:42:25;;;;;;;50.70;23.13;;;256.40;2252.80;;;;;;5033244;28;20028;-66
2023/12/25 03:44:50;;;;;;;34.40;19.83;;;256.40;2252.80;;;;;;5034189;28;20041;-73
2023/12/25 03:47:17;;;;;;;30.30;16.48;;;256.40;2252.80;;;;;;5036715;28;20143;-68
2023/12/25 03:49:43;;;;;;;26.00;15.48;;;256.40;2252.80;;;;;;5054196;28;20037;-65
2023/12/25 03:52:09;;;;;;;24.15;14.98;;;256.40;2252.80;;;;;;5054411;28;20029;-68
2023/12/25 03:54:39;;;;;;;27.48;14.57;;;256.40;2252.80;;;;;;5053893;28;20049;-66
2023/12/25 03:57:06;;;;;;;25.13;13.80;;;256.40;2252.80;;;;;;5040316;28;20137;-65
2023/12/25 03:59:32;;;;;;;26.48;14.50;;;256.40;2252.80;;;;;;5030710;28;20037;-66
2023/12/25 04:01:57;;;;;;;25.73;14.73;;;256.40;2252.80;;;;;;5032967;28;20032;-65
2023/12/25 04:04:23;;;;;;;24.48;13.63;;;256.40;2252.80;;;;;;5034489;28;20473;-74
2023/12/25 04:06:49;;;;;;;23.55;14.40;;;256.30;2252.80;;;;;;5032120;28;20024;-74
2023/12/25 04:09:15;;;;;;;29.45;14.75;;;256.30;2252.80;;;;;;5033775;28;20025;-70
2023/12/25 04:11:44;;;;;;;25.63;14.15;;;256.30;2252.80;;;;;;5032818;28;20064;-66
2023/12/25 04:14:09;;;;;;;26.25;14.18;;;256.30;2252.80;;;;;;5033815;28;20026;-66
2023/12/25 04:16:35;;;;;;;24.17;13.98;;;256.30;2252.80;;;;;;5030596;28;20068;-71
2023/12/25 04:19:01;;;;;;;21.35;13.18;;;256.20;2252.80;;;;;;5029642;28;20064;-65
2023/12/25 04:21:31;;;;;;;24.73;12.68;;;256.20;2252.80;;;;;;5032899;28;20032;-74
2023/12/25 04:23:57;;;;;;;23.02;13.07;;;256.20;2252.80;;;;;;5033828;28;20032;-65
2023/12/25 04:26:24;;;;;;;26.42;13.18;;;256.20;2252.80;;;;;;5021350;28;20370;-78
2023/12/25 04:28:50;;;;;;;22.58;12.63;;;256.20;2252.80;;;;;;5030966;28;20183;-71
2023/12/25 04:31:17;;;;;;;22.63;12.90;;;256.30;2252.80;;;;;;5033356;28;20104;-68
2023/12/25 04:33:46;;;;;;;23.52;12.80;;;256.20;2252.80;;;;;;5032052;28;20376;-66
2023/12/25 04:36:12;;;;;;;23.27;12.45;;;256.20;2252.80;;;;;;5028577;28;20033;-69
2023/12/25 04:38:38;;;;;;;21.95;11.73;;;256.20;2252.80;;;;;;5031379;28;20101;-70
2023/12/25 04:41:04;;;;;;;21.17;11.50;;;256.20;2252.80;;;;;;5033001;28;20540;-67
2023/12/25 04:43:33;;;;;;;20.58;11.25;;;256.20;2252.80;;;;;;5033359;28;20025;-76
2023/12/25 04:46:02;;;;;;;20.80;11.73;;;256.30;2252.80;;;;;;5033210;28;20435;-76
2023/12/25 04:48:28;;;;;;;21.83;11.60;;;256.30;2252.80;;;;;;5045397;28;20108;-75
2023/12/25 04:50:57;;;;;;;27.25;13.25;;;256.20;2252.80;;;;;;5053195;28;20021;-75
2023/12/25 04:53:22;;;;;;;20.88;10.77;;;256.20;2252.80;;;;;;5053044;28;20028;-73
2023/12/25 04:55:48;;;;;;;24.83;11.95;;;256.20;2252.80;;;;;;5034997;28;20029;-70
2023/12/25 04:58:17;;;;;;;17.75;9.43;;;256.30;2252.80;;;;;;5033010;28;20095;-70
2023/12/25 05:00:42;;;;;;;18.35;8.48;;;256.30;2252.80;;;;;;5033708;28;20033;-66
2023/12/25 05:03:09;;;;;;;18.77;8.73;;;256.30;2252.80;;;;;;5033439;28;20027;-65
2023/12/25 05:05:37;;;;;;;16.15;8.30;;;256.20;2252.80;;;;;;5033989;28;20037;-68
2023/12/25 05:08:03;;;;;;;16.25;8.05;;;256.30;2252.80;;;;;;5032383;28;20037;-76
2023/12/25 05:10:31;;;;;;;18.10;8.52;;;256.30;2252.80;;;;;;5029040;28;20646;-75
2023/12/25 05:12:57;;;;;;;19.02;9.75;;;256.30;2252.80;;;;;;5031714;28;20018;-65
2023/12/25 05:15:26;;;;;;;15.23;8.55;;;256.30;2252.80;;;;;;5033384;28;20487;-76
2023/12/25 05:17:52;;;;;;;29.75;15.50;;;256.20;2252.80;;;;;;5033356;28;20022;-66
2023/12/25 05:20:20;;;;;;;293.42;142.57;;;256.20;2252.80;;;;;;5033064;28;20514;-71
2023/12/25 05:22:49;;;;;;;20.42;11.18;;;256.10;2252.80;;;;;;5032448;28;20025;-69
2023/12/25 05:25:14;;;;;;;20.30;10.73;;;256.10;2252.80;;;;;;5036827;28;20049;-73
2023/12/25 05:27:40;;;;;;;17.15;9.05;;;256.10;2252.80;;;;;;5043196;28;20384;-65
2023/12/25 05:30:06;;;;;;;18.25;10.98;;;256.20;2252.80;;;;;;5045004;28;20026;-73
2023/12/25 05:32:32;;;;;;;21.23;14.30;;;256.20;2252.80;;;;;;5033470;28;20365;-66
2023/12/25 05:34:57;;;;;;;25.20;14.30;;;256.20;2252.80;;;;;;5037191;28;20036;-70
2023/12/25 05:37:23;;;;;;;82.95;41.88;;;256.20;2252.80;;;;;;5036039;28;20578;-74
2023/12/25 05:39:49;;;;;;;295.08;161.68;;;256.30;2252.80;;;;;;5018801;28;20048;-65
2023/12/25 05:42:14;;;;;;;221.55;96.65;;;256.30;2252.80;;;;;;5036814;28;20041;-75
2023/12/25 05:44:40;;;;;;;54.97;29.63;;;256.30;2252.80;;;;;;5036630;28;20033;-65
2023/12/25 05:47:06;;;;;;;28.10;15.02;;;256.40;2252.80;;;;;;5037675;28;20540;-68
2023/12/25 05:49:32;;;;;;;17.10;8.82;;;256.40;2252.80;;;;;;5030546;28;20745;-73
2023/12/25 05:51:58;;;;;;;80.25;43.83;;;256.40;2252.80;;;;;;5034832;28;20026;-78
2023/12/25 05:54:23;;;;;;;36.15;16.05;;;256.40;2252.80;;;;;;5036288;28;20349;-66
2023/12/25 05:56:49;;;;;;;21.83;10.30;;;256.40;2252.80;;;;;;5033719;28;20049;-76
2023/12/25 05:59:15;;;;;;;35.03;19.08;;;256.40;2252.80;;;;;;5036341;28;20034;-69
2023/12/25 06:01:41;;;;;;;48.90;31.33;;;256.40;2252.80;;;;;;5036223;28;20110;-65
2023/12/25 06:04:06;;;;;;;35.53;20.52;;;256.50;2252.80;;;;;;5035836;28;20037;-66
2023/12/25 06:06:32;;;;;;;24.75;12.70;;;256.40;2252.80;;;;;;5033977;28;20111;-77
2023/12/25 06:08:58;;;;;;;26.98;12.68;;;256.40;2252.80;;;;;;5031358;28;20057;-65
2023/12/25 06:11:23;;;;;;;23.80;13.00;;;256.40;2252.80;;;;;;5031510;28;20033;-76
2023/12/25 06:13:49;;;;;;;30.48;16.30;;;256.30;2252.80;;;;;;5038347;28;20025;-66
2023/12/25 06:16:15;;;;;;;28.67;17.08;;;256.30;2252.80;;;;;;5037024;28;20038;-65
2023/12/25 06:18:41;;;;;;;27.13;15.57;;;256.20;2252.80;;;;;;5041425;28;20057;-65
2023/12/25 06:21:07;;;;;;;24.45;13.75;;;256.00;2252.80;;;;;;5035440;28;20437;-65
2023/12/25 06:23:32;;;;;;;26.00;11.05;;;256.00;2252.80;;;;;;5036772;28;20057;-65
2023/12/25 06:25:59;;;;;;;22.40;11.85;;;231.30;2252.80;;;;;;5043156;28;20395;-66
2023/12/25 06:28:25;;;;;;;19.92;10.85;;;231.20;2252.80;;;;;;5051797;28;20029;-65
2023/12/25 06:30:51;;;;;;;19.90;10.55;;;231.20;2252.80;;;;;;5034004;28;20034;-65
2023/12/25 06:33:18;;;;;;;19.73;10.75;;;256.10;2252.80;;;;;;5036091;28;20781;-66
2023/12/25 06:35:44;;;;;;;21.85;12.00;;;231.20;2252.80;;;;;;5034597;28;20022;-67
2023/12/25 06:38:12;;;;;;;23.63;11.98;;;231.20;2252.80;;;;;;5035348;28;20021;-66
2023/12/25 06:40:37;;;;;;;18.20;11.45;;;231.20;2252.80;;;;;;5032000;28;20109;-65
2023/12/25 06:43:03;;;;;;;27.30;15.57;;;231.20;2252.80;;;;;;5040842;28;20104;-80
2023/12/25 06:45:29;;;;;;;21.63;13.02;;;231.10;2252.80;;;;;;5034095;28;20039;-66
2023/12/25 06:47:54;;;;;;;23.58;12.77;;;230.90;2252.80;;;;;;5034848;28;20026;-65
2023/12/25 06:50:20;;;;;;;27.17;14.95;;;230.90;2252.80;;;;;;5034713;28;20037;-65
2023/12/25 06:52:46;;;;;;;62.88;39.35;;;230.90;2252.80;;;;;;5035802;28;20151;-72
2023/12/25 06:55:12;;;;;;;94.07;55.70;;;230.80;2252.80;;;;;;5053415;28;20021;-65
2023/12/25 06:57:38;;;;;;;29.63;16.70;;;230.90;2252.80;;;;;;5047394;28;20045;-65
2023/12/25 07:00:05;;;;;;;30.33;17.60;;;230.90;2252.80;;;;;;5032280;28;20049;-65
2023/12/25 07:02:31;;;;;;;30.58;16.05;;;230.80;2252.80;;;;;;5031800;28;20042;-65
2023/12/25 07:04:57;;;;;;;22.73;13.60;;;230.70;2252.80;;;;;;5033614;28;20038;-65
2023/12/25 07:07:22;;;;;;;26.52;16.05;;;230.70;2252.80;;;;;;5028225;28;20028;-66
2023/12/25 07:09:48;;;;;;;31.40;16.73;;;230.70;2252.80;;;;;;5041342;28;20056;-71
2023/12/25 07:12:14;;;;;;;29.08;17.38;;;230.60;2252.80;;;;;;5032707;28;20017;-65
2023/12/25 07:14:45;;;;;;;28.13;15.32;;;230.70;2252.80;;;;;;5033922;28;20571;-66
2023/12/25 07:17:10;;;;;;;26.88;13.77;;;230.60;2252.80;;;;;;5033473;28;20013;-81
2023/12/25 07:19:36;;;;;;;29.05;14.70;;;230.50;2252.80;;;;;;5036978;28;20035;-71
2023/12/25 07:22:03;;;;;;;28.70;14.75;;;230.70;2252.80;;;;;;5030811;28;20057;-69
2023/12/25 07:24:28;;;;;;;22.00;11.70;;;230.50;2252.80;;;;;;5031452;28;20087;-69
2023/12/25 07:26:54;;;;;;;33.60;20.20;;;230.40;2252.80;;;;;;5032585;28;20026;-66
2023/12/25 07:29:20;;;;;;;85.03;38.65;;;205.70;2252.80;;;;;;5033150;28;20017;-68
2023/12/25 07:31:46;;;;;;;33.08;18.10;;;205.70;2252.80;;;;;;5034335;28;20038;-72
2023/12/25 07:34:11;;;;;;;27.50;16.55;;;230.40;2252.80;;;;;;5034822;28;20029;-65
2023/12/25 07:36:37;;;;;;;28.52;17.67;;;230.50;2252.80;;;;;;5032864;28;20380;-66
2023/12/25 07:39:05;;;;;;;27.50;15.38;;;230.50;2252.80;;;;;;5033752;28;20025;-68
2023/12/25 07:41:31;;;;;;;39.83;21.33;;;230.40;2252.80;;;;;;5028887;28;20361;-70
2023/12/25 07:44:01;;;;;;;82.10;49.25;;;230.50;2252.80;;;;;;5029378;28;20052;-74
2023/12/25 07:46:27;;;;;;;111.20;55.97;;;230.50;2252.80;;;;;;5034609;28;20037;-74
2023/12/25 07:48:53;;;;;;;104.43;50.95;;;230.60;2252.80;;;;;;5032112;28;20025;-77
2023/12/25 07:51:19;;;;;;;87.32;45.13;;;230.70;2252.80;;;;;;5035929;28;20112;-66
2023/12/25 07:53:46;;;;;;;145.18;60.42;;;231.00;2252.80;;;;;;5034352;28;20068;-72
2023/12/25 07:56:12;;;;;;;161.95;80.65;;;231.10;2252.80;;;;;;5031852;28;20037;-73
2023/12/25 07:58:38;;;;;;;90.10;44.50;;;231.00;2252.80;;;;;;5014244;28;20045;-66
2023/12/25 08:01:04;;;;;;;80.93;44.67;;;231.20;2252.80;;;;;;5030604;28;20475;-73
2023/12/25 08:03:29;;;;;;;93.28;47.38;;;231.30;2252.80;;;;;;5025664;28;20036;-65
2023/12/25 08:05:55;;;;;;;396.73;197.77;;;256.00;2252.80;;;;;;5031962;28;20041;-78
2023/12/25 08:08:21;;;;;;;69.65;36.47;;;231.10;2252.80;;;;;;5034271;28;20018;-65
2023/12/25 08:10:47;;;;;;;38.92;20.95;;;231.00;2252.80;;;;;;5033593;28;20025;-74
2023/12/25 08:13:17;;;;;;;54.45;31.13;;;231.20;2252.80;;;;;;5033210;28;20400;-76
2023/12/25 08:15:43;;;;;;;48.47;29.42;;;231.20;2252.80;;;;;;5033498;28;20029;-66
2023/12/25 08:18:08;;;;;;;68.75;40.80;;;231.30;2252.80;;;;;;5030918;28;20036;-77
2023/12/25 08:20:34;;;;;;;78.13;44.65;;;256.20;2252.80;;;;;;5027514;28;20025;-69
2023/12/25 08:23:00;;;;;;;69.55;39.35;;;281.80;2278.40;;;;;;5029096;28;20017;-78
2023/12/25 08:25:26;;;;;;;64.97;37.55;;;307.40;2304.00;;;;;;5029968;28;20064;-74
2023/12/25 08:27:52;;;;;;;79.20;45.05;;;333.60;2329.60;;;;;;5029248;28;20022;-66
2023/12/25 08:30:19;;;;;;;45.95;29.08;;;333.50;2329.60;;;;;;5031378;28;20029;-74
2023/12/25 08:32:45;;;;;;;62.92;38.50;;;333.10;2329.60;;;;;;5031244;28;20025;-71
2023/12/25 08:35:11;;;;;;;46.83;30.00;;;307.70;2304.00;;;;;;5030324;28;20041;-72
2023/12/25 08:37:37;;;;;;;31.75;20.45;;;307.40;2304.00;;;;;;5029828;28;20032;-66
2023/12/25 08:40:03;;;;;;;29.63;18.35;;;282.50;2278.40;;;;;;5032901;28;20400;-73
2023/12/25 08:42:31;;;;;;;115.45;48.90;;;282.50;2278.40;;;;;;5029129;28;20021;-74
2023/12/25 08:44:57;;;;;;;114.97;58.42;;;282.30;2278.40;;;;;;5025373;28;20051;-67
2023/12/25 08:47:24;;;;;;;66.82;37.78;;;282.30;2278.40;;;;;;5031899;28;20108;-75
2023/12/25 08:49:50;;;;;;;97.55;55.20;;;282.20;2278.40;;;;;;5031888;28;20021;-69
2023/12/25 08:52:17;;;;;;;63.15;34.17;;;282.30;2278.40;;;;;;5034761;28;20090;-70
2023/12/25 08:54:43;;;;;;;92.07;46.00;;;282.30;2278.40;;;;;;5047006;28;20128;-66
2023/12/25 08:57:08;;;;;;;55.08;28.95;;;282.30;2278.40;;;;;;5055957;28;20833;-68
2023/12/25 08:59:34;;;;;;;42.10;21.42;;;282.50;2278.40;;;;;;5058495;28;20028;-66
2023/12/25 09:02:00;;;;;;;81.35;37.72;;;307.20;2304.00;;;;;;5045713;28;20030;-66
2023/12/25 09:04:26;;;;;;;132.88;56.78;;;307.40;2304.00;;;;;;5051073;28;20035;-77
2023/12/25 09:06:52;;;;;;;158.95;67.63;;;307.70;2304.00;;;;;;5041617;28;20032;-65
2023/12/25 09:09:17;;;;;;;177.07;84.82;;;307.80;2304.00;;;;;;5039790;28;20476;-66
2023/12/25 09:11:43;;;;;;;44.92;24.80;;;307.90;2304.00;;;;;;5022050;28;20384;-66
2023/12/25 09:14:09;;;;;;;35.50;20.67;;;333.10;2329.60;;;;;;5034816;28;20034;-66
2023/12/25 09:16:37;;;;;;;48.35;24.02;;;333.70;2329.60;;;;;;5037106;28;20024;-66
2023/12/25 09:19:04;;;;;;;38.25;21.63;;;358.80;2329.60;;;;;;5039151;28;20037;-65
2023/12/25 09:21:36;;;;;;;50.00;27.17;;;384.50;2329.60;;;;;;5039161;28;20036;-65
2023/12/25 09:24:02;;;;;;;31.80;17.35;;;409.70;2355.20;;;;;;5038514;28;20037;-67
2023/12/25 09:26:27;;;;;;;21.05;12.20;;;410.40;2355.20;;;;;;5039197;28;20029;-66
2023/12/25 09:28:53;;;;;;;52.70;24.95;;;435.40;2355.20;;;;;;5038118;28;20024;-66
2023/12/25 09:31:19;;;;;;;37.22;18.33;;;461.00;2380.80;;;;;;5038613;28;20108;-67
2023/12/25 09:33:45;;;;;;;28.65;13.80;;;461.00;2380.80;;;;;;5038369;28;20024;-68
2023/12/25 09:36:12;;;;;;;31.70;18.15;;;461.10;2380.80;;;;;;5038639;28;20041;-65
2023/12/25 09:38:38;;;;;;;33.60;19.55;;;461.30;2380.80;;;;;;5036253;28;20090;-66
2023/12/25 09:41:10;;;;;;;37.83;22.35;;;461.60;2380.80;;;;;;5036629;28;20108;-67
2023/12/25 09:43:39;;;;;;;25.50;13.38;;;486.60;2278.40;;;;;;5035377;28;20033;-66
2023/12/25 09:46:05;;;;;;;19.50;10.60;;;486.70;2176.00;;;;;;5037391;28;20037;-67
2023/12/25 09:48:31;;;;;;;22.38;12.02;;;486.90;2124.80;;;;;;5038742;28;20345;-66
2023/12/25 09:50:58;;;;;;;22.33;11.35;;;486.70;2124.80;;;;;;5038690;28;20032;-66
2023/12/25 09:53:24;;;;;;;25.55;12.32;;;;;;;;;;5039072;28;20024;-66
2023/12/25 09:55:51;;;;;;;43.17;23.90;;;;;;;;;;5039112;28;20361;-66
2023/12/25 09:58:20;;;;;;;48.58;28.95;;;;;;;;;;5037611;28;20077;-66
2023/12/25 10:00:47;;;;;;;38.38;21.70;;;;;;;;;;5038222;28;20068;-71
2023/12/25 10:03:13;;;;;;;50.58;31.75;;;;;;;;;;5037566;28;20033;-66
2023/12/25 10:05:42;;;;;;;30.08;19.25;;;512.40;2073.60;;;;;;5038393;28;20953;-66
2023/12/25 10:08:07;;;;;;;23.08;14.77;;;512.00;2150.40;;;;;;5037192;28;20017;-65
2023/12/25 10:10:33;;;;;;;19.55;12.85;;;487.20;2227.20;;;;;;5034629;28;20357;-65
2023/12/25 10:12:59;;;;;;;20.45;11.75;;;512.40;2227.20;;;;;;5034571;28;20036;-66
2023/12/25 10:15:25;;;;;;;28.80;16.38;;;487.30;2380.80;;;;;;5035552;28;20029;-66
2023/12/25 10:18:05;;;;;;;27.50;12.70;;;512.30;2355.20;;;;;;5033694;28;20033;-66
2023/12/25 10:20:31;;;;;;;21.50;10.48;;;;;;;;;;5041392;28;20025;-66
2023/12/25 10:22:57;;;;;;;19.30;10.38;;;538.00;2073.60;;;;;;5035713;28;20029;-66
2023/12/25 10:25:28;;;;;;;18.40;10.15;;;563.30;2099.20;;;;;;5035080;28;20037;-65
2023/12/25 10:27:54;;;;;;;22.65;11.38;;;563.70;1894.40;;;;;;5035716;28;20029;-66
2023/12/25 10:30:22;;;;;;;12.38;6.50;;;564.00;1715.20;;;;;;5035048;28;20538;-66
2023/12/25 10:32:49;;;;;;;9.10;4.32;;;563.80;1638.40;;;;;;5035469;28;20065;-66
2023/12/25 10:35:18;;;;;;;16.88;4.85;;;563.50;1612.80;;;;;;5034465;28;20028;-66
2023/12/25 10:37:45;;;;;;;11.73;4.43;;;538.40;1638.40;;;;;;5035364;28;20017;-66
2023/12/25 10:40:25;;;;;;;11.55;5.55;;;538.40;1638.40;;;;;;5041047;28;20032;-66
2023/12/25 10:42:53;;;;;;;11.73;5.15;;;538.40;1664.00;;;;;;5042650;28;20507;-65
2023/12/25 10:45:25;;;;;;;12.10;4.35;;;538.50;1664.00;;;;;;5038442;28;20041;-67
2023/12/25 10:47:58;;;;;;;10.10;4.32;;;538.50;1612.80;;;;;;5035130;28;20472;-66
2023/12/25 10:50:26;;;;;;;9.77;4.97;;;538.50;1612.80;;;;;;5035198;28;20124;-67
2023/12/25 10:52:59;;;;;;;10.93;5.03;;;538.40;1638.40;;;;;;5035212;28;20027;-68
2023/12/25 10:55:35;;;;;;;20.92;9.93;;;538.40;1638.40;;;;;;5035647;28;20475;-67
2023/12/25 10:58:05;;;;;;;12.82;5.63;;;538.20;1612.80;;;;;;5035053;28;20121;-66
2023/12/25 11:00:33;;;;;;;17.83;10.48;;;563.20;1638.40;;;;;;5034931;28;20026;-65
2023/12/25 11:03:02;;;;;;;10.77;5.00;;;563.50;1612.80;;;;;;5034965;28;20040;-65
2023/12/25 11:05:28;;;;;;;18.27;8.80;;;563.40;1612.80;;;;;;5034777;28;20033;-67
2023/12/25 11:07:54;;;;;;;19.35;10.98;;;563.40;1612.80;;;;;;5035074;28;20076;-66
2023/12/25 11:10:20;;;;;;;26.08;16.17;;;563.50;1612.80;;;;;;5034483;28;20014;-69
2023/12/25 11:12:49;;;;;;;49.65;31.73;;;563.40;1612.80;;;;;;5033214;28;20060;-66
2023/12/25 11:15:15;;;;;;;68.88;44.83;;;;;;;;;;5032504;28;20036;-66
2023/12/25 11:17:41;;;;;;;35.33;21.95;;;588.80;1536.00;;;;;;5033502;28;20497;-65
2023/12/25 11:20:11;;;;;;;13.45;6.15;;;588.90;1510.40;;;;;;5038433;28;20021;-66
2023/12/25 11:22:40;;;;;;;20.73;13.02;;;589.30;1484.80;;;;;;5035098;28;20134;-66
2023/12/25 11:25:24;;;;;;;15.50;9.57;;;589.30;1484.80;;;;;;5034345;28;20096;-72
2023/12/25 11:27:52;;;;;;;14.70;6.03;;;563.60;1612.80;;;;;;5035196;28;20061;-69
2023/12/25 11:30:19;;;;;;;15.13;6.82;;;537.80;1587.20;;;;;;5016706;28;20045;-65
2023/12/25 11:32:49;;;;;;;11.85;4.47;;;512.10;1664.00;;;;;;5032611;28;20116;-67
2023/12/25 11:35:17;;;;;;;13.38;6.75;;;512.20;1689.60;;;;;;5033715;28;20060;-71
2023/12/25 11:37:44;;;;;;;15.65;8.10;;;512.20;1689.60;;;;;;5015931;28;20029;-69
2023/12/25 11:40:10;;;;;;;17.20;8.93;;;512.70;2150.40;;;;;;5033923;28;20463;-74
2023/12/25 11:42:37;;;;;;;19.52;8.68;;;512.80;1689.60;;;;;;5032695;28;20391;-71
2023/12/25 11:45:07;;;;;;;14.52;6.78;;;537.60;1689.60;;;;;;5033953;28;20044;-67
2023/12/25 11:47:40;;;;;;;14.95;6.05;;;;;;;;;;5016424;28;20021;-65
2023/12/25 11:50:08;;;;;;;12.35;6.05;;;;;;;;;;5033835;28;20044;-70
2023/12/25 11:52:46;;;;;;;12.70;6.20;;;;;;;;;;5034087;28;20018;-71
2023/12/25 11:55:19;;;;;;;20.77;8.70;;;538.50;1612.80;;;;;;5033839;28;20022;-69
2023/12/25 11:57:45;;;;;;;15.45;6.95;;;563.20;1612.80;;;;;;5033673;28;20140;-68
2023/12/25 12:00:21;;;;;;;12.45;6.07;;;563.50;1587.20;;;;;;5033521;28;20025;-69
2023/12/25 12:02:47;;;;;;;12.70;6.53;;;563.50;1587.20;;;;;;5031004;28;20034;-67